Time,TemperatureF,DewpointF,PressureIn,WindDirection,WindDirectionDegrees,WindSpeedMPH,WindSpeedGustMPH,Humidity,HourlyPrecipIn,Conditions,Clouds,dailyrainin,SoftwareType,DateUTC
2013-06-23 00:05:00,74.3,69.1,30.02,SSW,196,1.0,4.0,84,0.00,,,0.00,Wunderground v.1.15,2013-06-23 04:05:00,
2013-06-23 00:10:00,73.9,69.1,30.02,SSW,196,1.0,4.0,85,0.00,,,0.00,Wunderground v.1.15,2013-06-23 04:10:00,
2013-06-23 00:15:00,73.5,68.7,30.02,SSW,196,1.0,4.0,85,0.00,,,0.00,Wunderground v.1.15,2013-06-23 04:15:00,
2013-06-23 00:20:00,73.2,68.8,30.02,SSW,196,1.0,4.0,86,0.00,,,0.00,Wunderground v.1.15,2013-06-23 04:20:00,
2013-06-23 00:30:00,72.7,68.9,30.02,SSW,196,1.0,1.0,88,0.00,,,0.00,Wunderground v.1.15,2013-06-23 04:30:00,
2013-06-23 00:35:00,72.7,68.3,30.02,SSW,196,1.0,4.0,86,0.00,,,0.00,Wunderground v.1.15,2013-06-23 04:35:00,
2013-06-23 00:40:00,72.9,67.8,30.02,SSW,196,1.0,4.0,84,0.00,,,0.00,Wunderground v.1.15,2013-06-23 04:40:00,
2013-06-23 00:50:00,72.5,68.4,30.02,SSW,196,1.0,1.0,87,0.00,,,0.00,Wunderground v.1.15,2013-06-23 04:50:00,
2013-06-23 01:00:00,71.7,68.6,30.01,South,175,1.0,4.0,90,0.00,,,0.00,Wunderground v.1.15,2013-06-23 05:00:00,
2013-06-23 01:05:00,71.4,68.3,30.01,South,175,1.0,4.0,90,0.00,,,0.00,Wunderground v.1.15,2013-06-23 05:05:00,
2013-06-23 01:15:00,71.3,68.2,30.01,South,175,1.0,4.0,90,0.00,,,0.00,Wunderground v.1.15,2013-06-23 05:15:00,
2013-06-23 01:25:00,71.2,68.4,30.01,South,175,1.0,4.0,91,0.00,,,0.00,Wunderground v.1.15,2013-06-23 05:25:00,
2013-06-23 01:30:00,70.7,67.9,30.01,South,175,1.0,4.0,91,0.00,,,0.00,Wunderground v.1.15,2013-06-23 05:30:00,
2013-06-23 01:40:00,70.7,67.9,30.01,South,175,1.0,4.0,91,0.00,,,0.00,Wunderground v.1.15,2013-06-23 05:40:00,
2013-06-23 01:50:00,71.1,68.0,30.01,East,92,1.0,1.0,90,0.00,,,0.00,Wunderground v.1.15,2013-06-23 05:50:00,
2013-06-23 02:00:00,71.1,68.3,30.02,North,5,2.0,4.0,91,0.00,,,0.00,Wunderground v.1.15,2013-06-23 06:00:00,
2013-06-23 02:10:00,70.8,68.4,30.02,North,9,2.0,2.0,92,0.00,,,0.00,Wunderground v.1.15,2013-06-23 06:10:00,
2013-06-23 02:20:00,70.6,68.2,30.02,North,9,0.0,4.0,92,0.00,,,0.00,Wunderground v.1.15,2013-06-23 06:20:00,
2013-06-23 02:25:00,70.5,68.4,30.01,ESE,107,1.0,4.0,93,0.00,,,0.00,Wunderground v.1.15,2013-06-23 06:25:00,
2013-06-23 02:35:00,70.6,68.5,30.01,South,183,1.0,4.0,93,0.00,,,0.00,Wunderground v.1.15,2013-06-23 06:35:00,
2013-06-23 02:45:00,70.6,68.5,30.02,WNW,296,1.0,4.0,93,0.00,,,0.00,Wunderground v.1.15,2013-06-23 06:45:00,
2013-06-23 02:50:00,70.5,68.4,30.02,SW,233,0.0,4.0,93,0.00,,,0.00,Wunderground v.1.15,2013-06-23 06:50:00,
2013-06-23 03:00:00,70.4,68.3,30.02,SW,233,0.0,4.0,93,0.00,,,0.00,Wunderground v.1.15,2013-06-23 07:00:00,
2013-06-23 03:10:00,70.4,68.3,30.02,SW,233,1.0,4.0,93,0.00,,,0.00,Wunderground v.1.15,2013-06-23 07:10:00,
2013-06-23 03:20:00,70.4,68.0,30.02,SW,233,1.0,4.0,92,0.00,,,0.00,Wunderground v.1.15,2013-06-23 07:20:00,
2013-06-23 03:30:00,70.1,68.0,30.02,SW,233,1.0,4.0,93,0.00,,,0.00,Wunderground v.1.15,2013-06-23 07:30:00,
2013-06-23 03:40:00,70.0,67.6,30.02,SSW,196,1.0,1.0,92,0.00,,,0.00,Wunderground v.1.15,2013-06-23 07:40:00,
2013-06-23 03:50:00,69.7,67.3,30.01,SSW,196,0.0,4.0,92,0.00,,,0.00,Wunderground v.1.15,2013-06-23 07:50:00,
2013-06-23 04:00:00,69.4,67.3,30.01,SSW,196,1.0,1.0,93,0.00,,,0.00,Wunderground v.1.15,2013-06-23 08:00:00,
2013-06-23 04:10:00,68.7,66.6,30.01,SSW,196,0.0,4.0,93,0.00,,,0.00,Wunderground v.1.15,2013-06-23 08:10:00,
2013-06-23 04:20:00,68.6,66.5,30.01,SSE,164,1.0,4.0,93,0.00,,,0.00,Wunderground v.1.15,2013-06-23 08:20:00,
2013-06-23 04:30:00,68.4,66.3,30.00,SSE,167,1.0,4.0,93,0.00,,,0.00,Wunderground v.1.15,2013-06-23 08:30:00,
2013-06-23 04:40:00,68.6,66.5,30.00,South,169,1.0,4.0,93,0.00,,,0.00,Wunderground v.1.15,2013-06-23 08:40:00,
2013-06-23 04:45:00,69.2,66.8,30.00,South,174,1.0,4.0,92,0.00,,,0.00,Wunderground v.1.15,2013-06-23 08:45:00,
2013-06-23 04:55:00,69.7,66.6,30.00,South,174,1.0,4.0,90,0.00,,,0.00,Wunderground v.1.15,2013-06-23 08:55:00,
2013-06-23 05:05:00,69.2,66.5,30.01,South,174,1.0,4.0,91,0.00,,,0.00,Wunderground v.1.15,2013-06-23 09:05:00,
2013-06-23 05:10:00,69.0,66.6,30.01,South,174,1.0,4.0,92,0.00,,,0.00,Wunderground v.1.15,2013-06-23 09:10:00,
2013-06-23 05:20:00,68.6,66.2,30.01,South,174,1.0,4.0,92,0.00,,,0.00,Wunderground v.1.15,2013-06-23 09:20:00,
2013-06-23 05:30:00,68.1,66.3,30.01,South,174,1.0,1.0,94,0.00,,,0.00,Wunderground v.1.15,2013-06-23 09:30:00,
2013-06-23 05:40:00,68.5,66.4,30.02,South,174,0.0,4.0,93,0.00,,,0.00,Wunderground v.1.15,2013-06-23 09:40:00,
2013-06-23 05:50:00,68.3,66.5,30.02,South,174,0.0,4.0,94,0.00,,,0.00,Wunderground v.1.15,2013-06-23 09:50:00,
2013-06-23 06:00:00,68.5,66.4,30.02,South,174,0.0,0.0,93,0.00,,,0.00,Wunderground v.1.15,2013-06-23 10:00:00,
2013-06-23 06:11:00,68.5,66.7,30.02,South,174,0.0,2.0,94,0.00,,,0.00,Wunderground v.1.15,2013-06-23 10:11:00,
2013-06-23 06:20:00,69.8,67.4,30.02,SSE,159,2.0,2.0,92,0.00,,,0.00,Wunderground v.1.15,2013-06-23 10:20:00,
2013-06-23 06:25:00,70.4,67.6,30.02,SSE,167,2.0,2.0,91,0.00,,,0.00,Wunderground v.1.15,2013-06-23 10:25:00,
2013-06-23 06:35:00,71.2,67.8,30.02,SSE,153,1.0,2.0,89,0.00,,,0.00,Wunderground v.1.15,2013-06-23 10:35:00,
2013-06-23 06:45:00,72.2,68.1,30.02,SSE,162,2.0,3.0,87,0.00,,,0.00,Wunderground v.1.15,2013-06-23 10:45:00,
2013-06-23 06:55:00,73.0,68.6,30.02,SSE,161,2.0,2.0,86,0.00,,,0.00,Wunderground v.1.15,2013-06-23 10:55:00,
2013-06-23 07:05:00,74.2,69.1,30.03,South,188,1.0,2.0,84,0.00,,,0.00,Wunderground v.1.15,2013-06-23 11:05:00,
2013-06-23 07:15:00,74.9,69.0,30.03,SSW,206,2.0,2.0,82,0.00,,,0.00,Wunderground v.1.15,2013-06-23 11:15:00,
2013-06-23 07:25:00,75.1,69.2,30.03,SSW,195,2.0,3.0,82,0.00,,,0.00,Wunderground v.1.15,2013-06-23 11:25:00,
2013-06-23 07:35:00,76.3,70.0,30.03,South,169,2.0,2.0,81,0.00,,,0.00,Wunderground v.1.15,2013-06-23 11:35:00,
2013-06-23 07:45:00,76.6,69.6,30.03,SSW,198,2.0,3.0,79,0.00,,,0.00,Wunderground v.1.15,2013-06-23 11:45:00,
2013-06-23 07:55:00,77.1,69.7,30.03,SW,219,2.0,2.0,78,0.00,,,0.00,Wunderground v.1.15,2013-06-23 11:55:00,
2013-06-23 08:05:00,77.8,70.8,30.03,SW,215,3.0,5.0,79,0.00,,,0.00,Wunderground v.1.15,2013-06-23 12:05:00,
2013-06-23 08:15:00,78.5,70.3,30.03,SSW,211,2.0,4.0,76,0.00,,,0.00,Wunderground v.1.15,2013-06-23 12:15:00,
2013-06-23 08:20:00,78.9,71.1,30.03,SW,236,2.0,2.0,77,0.00,,,0.00,Wunderground v.1.15,2013-06-23 12:20:00,
2013-06-23 08:25:00,79.1,70.1,30.03,SSW,202,2.0,2.0,74,0.00,,,0.00,Wunderground v.1.15,2013-06-23 12:25:00,
2013-06-23 08:31:00,79.4,70.8,30.03,SW,223,2.0,2.0,75,0.00,,,0.00,Wunderground v.1.15,2013-06-23 12:31:00,
2013-06-23 08:36:00,79.7,70.7,30.03,SSW,201,3.0,3.0,74,0.00,,,0.00,Wunderground v.1.15,2013-06-23 12:36:00,
2013-06-23 08:41:00,79.9,71.3,30.03,SSW,195,3.0,3.0,75,0.00,,,0.00,Wunderground v.1.15,2013-06-23 12:41:00,
2013-06-23 08:50:00,80.4,71.3,30.03,South,188,3.0,3.0,74,0.00,,,0.00,Wunderground v.1.15,2013-06-23 12:50:00,
2013-06-23 09:00:00,80.8,71.7,30.03,SSW,209,3.0,4.0,74,0.00,,,0.00,Wunderground v.1.15,2013-06-23 13:00:00,
2013-06-23 09:10:00,81.0,71.5,30.03,West,271,3.0,3.0,73,0.00,,,0.00,Wunderground v.1.15,2013-06-23 13:10:00,
2013-06-23 09:15:00,81.1,71.6,30.03,SSW,209,3.0,3.0,73,0.00,,,0.00,Wunderground v.1.15,2013-06-23 13:15:00,
2013-06-23 09:25:00,81.6,72.1,30.03,WSW,257,3.0,4.0,73,0.00,,,0.00,Wunderground v.1.15,2013-06-23 13:25:00,
2013-06-23 09:30:00,81.9,73.2,30.03,SW,220,2.0,4.0,75,0.00,,,0.00,Wunderground v.1.15,2013-06-23 13:30:00,
2013-06-23 09:40:00,82.2,72.7,30.03,SSW,197,3.0,4.0,73,0.00,,,0.00,Wunderground v.1.15,2013-06-23 13:40:00,
2013-06-23 09:50:00,82.6,71.8,30.03,SSW,207,3.0,5.0,70,0.00,,,0.00,Wunderground v.1.15,2013-06-23 13:50:00,
2013-06-23 10:00:00,82.9,72.1,30.03,West,280,4.0,4.0,70,0.00,,,0.00,Wunderground v.1.15,2013-06-23 14:00:00,
2013-06-23 10:10:00,83.4,72.6,30.02,West,271,3.0,5.0,70,0.00,,,0.00,Wunderground v.1.15,2013-06-23 14:10:00,
2013-06-23 10:15:00,83.5,73.5,30.02,WSW,238,4.0,5.0,72,0.00,,,0.00,Wunderground v.1.15,2013-06-23 14:15:00,
2013-06-23 10:25:00,83.8,73.8,30.02,WNW,288,4.0,6.0,72,0.00,,,0.00,Wunderground v.1.15,2013-06-23 14:25:00,
2013-06-23 10:30:00,84.0,72.7,30.02,WSW,249,4.0,4.0,69,0.00,,,0.00,Wunderground v.1.15,2013-06-23 14:30:00,
2013-06-23 10:40:00,84.3,73.4,30.02,West,262,4.0,4.0,70,0.00,,,0.00,Wunderground v.1.15,2013-06-23 14:40:00,
2013-06-23 10:45:00,84.7,73.8,30.02,WNW,285,3.0,7.0,70,0.00,,,0.00,Wunderground v.1.15,2013-06-23 14:45:00,
2013-06-23 10:55:00,84.7,73.4,30.02,West,268,4.0,7.0,69,0.00,,,0.00,Wunderground v.1.15,2013-06-23 14:55:00,
2013-06-23 11:00:00,84.7,73.8,30.02,SW,227,4.0,4.0,70,0.00,,,0.00,Wunderground v.1.15,2013-06-23 15:00:00,
2013-06-23 11:10:00,84.9,74.9,30.02,WNW,289,3.0,3.0,72,0.00,,,0.00,Wunderground v.1.15,2013-06-23 15:10:00,
2013-06-23 11:20:00,84.8,72.6,30.02,WNW,286,3.0,3.0,67,0.00,,,0.00,Wunderground v.1.15,2013-06-23 15:20:00,
2013-06-23 11:30:00,85.9,73.2,30.02,NW,311,3.0,3.0,66,0.00,,,0.00,Wunderground v.1.15,2013-06-23 15:30:00,
2013-06-23 11:40:00,86.4,74.1,30.02,WSW,258,4.0,5.0,67,0.00,,,0.00,Wunderground v.1.15,2013-06-23 15:40:00,
2013-06-23 11:45:00,86.3,73.1,30.01,West,263,4.0,5.0,65,0.00,,,0.00,Wunderground v.1.15,2013-06-23 15:45:00,
2013-06-23 11:50:00,85.7,72.6,30.02,SW,235,4.0,4.0,65,0.00,,,0.00,Wunderground v.1.15,2013-06-23 15:50:00,
2013-06-23 12:00:00,85.7,73.0,30.01,WNW,286,3.0,3.0,66,0.00,,,0.00,Wunderground v.1.15,2013-06-23 16:00:00,
2013-06-23 12:05:00,85.8,73.6,30.01,West,279,3.0,4.0,67,0.00,,,0.00,Wunderground v.1.15,2013-06-23 16:05:00,
2013-06-23 12:15:00,86.7,74.0,30.01,NNW,342,3.0,5.0,66,0.00,,,0.00,Wunderground v.1.15,2013-06-23 16:15:00,
2013-06-23 12:25:00,87.0,73.3,30.01,WSW,248,3.0,3.0,64,0.00,,,0.00,Wunderground v.1.15,2013-06-23 16:25:00,
2013-06-23 12:30:00,87.1,74.8,30.01,SSW,200,3.0,5.0,67,0.00,,,0.00,Wunderground v.1.15,2013-06-23 16:30:00,
2013-06-23 12:40:00,87.2,76.2,30.00,West,259,4.0,4.0,70,0.00,,,0.00,Wunderground v.1.15,2013-06-23 16:40:00,
2013-06-23 12:48:00,86.6,73.4,30.00,WSW,257,3.0,3.0,65,0.00,,,0.00,Wunderground v.1.15,2013-06-23 16:48:00,
2013-06-23 12:55:00,86.2,74.8,30.00,WNW,292,4.0,4.0,69,0.00,,,0.00,Wunderground v.1.15,2013-06-23 16:55:00,
2013-06-23 13:00:00,86.8,74.1,30.00,West,277,3.0,3.0,66,0.00,,,0.00,Wunderground v.1.15,2013-06-23 17:00:00,
2013-06-23 13:05:00,86.4,74.1,30.00,West,273,3.0,3.0,67,0.00,,,0.00,Wunderground v.1.15,2013-06-23 17:05:00,
2013-06-23 13:10:00,85.6,73.4,30.00,NNW,339,3.0,3.0,67,0.00,,,0.00,Wunderground v.1.15,2013-06-23 17:10:00,
2013-06-23 13:15:00,84.6,74.2,30.00,NW,325,2.0,3.0,71,0.00,,,0.00,Wunderground v.1.15,2013-06-23 17:15:00,
2013-06-23 13:20:00,84.7,73.8,30.00,WNW,296,2.0,2.0,70,0.00,,,0.00,Wunderground v.1.15,2013-06-23 17:20:00,
2013-06-23 13:25:00,84.8,73.9,30.00,West,269,2.0,3.0,70,0.00,,,0.00,Wunderground v.1.15,2013-06-23 17:25:00,
2013-06-23 13:35:00,85.8,75.3,29.99,SW,225,2.0,3.0,71,0.00,,,0.00,Wunderground v.1.15,2013-06-23 17:35:00,
2013-06-23 13:40:00,86.9,73.7,29.99,WSW,242,3.0,3.0,65,0.00,,,0.00,Wunderground v.1.15,2013-06-23 17:40:00,
2013-06-23 13:45:00,87.5,76.1,29.99,WSW,257,3.0,4.0,69,0.00,,,0.00,Wunderground v.1.15,2013-06-23 17:45:00,
2013-06-23 13:55:00,87.9,74.2,29.98,West,268,3.0,3.0,64,0.00,,,0.00,Wunderground v.1.15,2013-06-23 17:55:00,
2013-06-23 14:05:00,88.4,75.1,29.98,NNW,340,3.0,3.0,65,0.00,,,0.00,Wunderground v.1.15,2013-06-23 18:05:00,
2013-06-23 14:10:00,87.1,74.8,29.98,NNW,338,4.0,4.0,67,0.00,,,0.00,Wunderground v.1.15,2013-06-23 18:10:00,
2013-06-23 14:20:00,86.2,74.8,29.98,NNE,16,3.0,3.0,69,0.00,,,0.00,Wunderground v.1.15,2013-06-23 18:20:00,
2013-06-23 14:30:00,86.9,75.1,29.98,NNW,347,4.0,4.0,68,0.00,,,0.00,Wunderground v.1.15,2013-06-23 18:30:00,
2013-06-23 14:40:00,85.0,73.3,29.97,NW,311,2.0,2.0,68,0.00,,,0.00,Wunderground v.1.15,2013-06-23 18:40:00,
2013-06-23 14:50:00,84.5,73.6,29.98,NW,323,2.0,2.0,70,0.00,,,0.00,Wunderground v.1.15,2013-06-23 18:50:00,
2013-06-23 15:00:00,84.5,73.2,29.98,SSW,211,2.0,2.0,69,0.00,,,0.00,Wunderground v.1.15,2013-06-23 19:00:00,
2013-06-23 15:10:00,84.6,74.6,29.97,WSW,254,1.0,2.0,72,0.00,,,0.00,Wunderground v.1.15,2013-06-23 19:10:00,
2013-06-23 15:20:00,85.6,75.5,29.97,SSW,207,2.0,2.0,72,0.00,,,0.00,Wunderground v.1.15,2013-06-23 19:20:00,
2013-06-23 15:25:00,85.8,74.9,29.96,SSW,210,3.0,3.0,70,0.00,,,0.00,Wunderground v.1.15,2013-06-23 19:25:00,
2013-06-23 15:35:00,86.3,74.9,29.95,SSW,207,3.0,3.0,69,0.00,,,0.00,Wunderground v.1.15,2013-06-23 19:35:00,
2013-06-23 15:45:00,86.9,75.1,29.97,WSW,246,2.0,3.0,68,0.00,,,0.00,Wunderground v.1.15,2013-06-23 19:45:00,
2013-06-23 15:50:00,86.3,73.1,29.98,SSW,204,2.0,3.0,65,0.00,,,0.00,Wunderground v.1.15,2013-06-23 19:50:00,
2013-06-23 16:00:00,85.0,73.7,29.97,SSW,196,2.0,2.0,69,0.00,,,0.00,Wunderground v.1.15,2013-06-23 20:00:00,
2013-06-23 16:10:00,83.4,73.0,29.97,SSW,198,4.0,4.0,71,0.00,,,0.00,Wunderground v.1.15,2013-06-23 20:10:00,
2013-06-23 16:20:00,81.5,72.0,29.98,SSW,209,5.0,5.0,73,0.00,,,0.00,Wunderground v.1.15,2013-06-23 20:20:00,
2013-06-23 16:30:00,79.3,70.7,29.98,SW,220,5.0,8.0,75,0.00,,,0.00,Wunderground v.1.15,2013-06-23 20:30:00,
2013-06-23 16:40:00,76.2,69.9,29.97,SSW,211,5.0,5.0,81,0.00,,,0.00,Wunderground v.1.15,2013-06-23 20:40:00,
2013-06-23 16:45:00,75.6,70.1,29.97,SSW,200,3.0,5.0,83,0.00,,,0.00,Wunderground v.1.15,2013-06-23 20:45:00,
2013-06-23 16:55:00,76.6,72.1,29.98,NE,52,2.0,3.0,86,0.00,,,0.00,Wunderground v.1.15,2013-06-23 20:55:00,
2013-06-23 17:05:00,76.3,71.5,29.99,East,86,6.0,8.0,85,0.00,,,0.00,Wunderground v.1.15,2013-06-23 21:05:00,
2013-06-23 17:10:00,75.7,70.5,29.99,ESE,123,7.0,10.0,84,0.00,,,0.00,Wunderground v.1.15,2013-06-23 21:10:00,
2013-06-23 17:20:00,77.0,71.4,29.98,NE,53,5.0,5.0,83,0.00,,,0.00,Wunderground v.1.15,2013-06-23 21:20:00,
2013-06-23 17:30:00,78.0,72.1,29.98,East,80,5.0,5.0,82,0.00,,,0.00,Wunderground v.1.15,2013-06-23 21:30:00,
2013-06-23 17:40:00,78.6,71.5,29.98,SSE,159,4.0,4.0,79,0.00,,,0.00,Wunderground v.1.15,2013-06-23 21:40:00,
2013-06-23 17:50:00,79.3,72.2,29.98,South,185,4.0,4.0,79,0.00,,,0.00,Wunderground v.1.15,2013-06-23 21:50:00,
2013-06-23 18:00:00,79.4,72.7,29.98,SE,129,5.0,6.0,80,0.00,,,0.00,Wunderground v.1.15,2013-06-23 22:00:00,
2013-06-23 18:05:00,79.1,72.8,29.97,SSE,154,6.0,6.0,81,0.00,,,0.00,Wunderground v.1.15,2013-06-23 22:05:00,
2013-06-23 18:15:00,78.5,72.5,29.97,SSW,194,5.0,7.0,82,0.00,,,0.00,Wunderground v.1.15,2013-06-23 22:15:00,
2013-06-23 18:25:00,78.2,71.9,29.98,SSE,166,5.0,5.0,81,0.00,,,0.00,Wunderground v.1.15,2013-06-23 22:25:00,
2013-06-23 18:35:00,78.2,71.5,29.97,South,188,5.0,6.0,80,0.00,,,0.00,Wunderground v.1.15,2013-06-23 22:35:00,
2013-06-23 18:45:00,77.9,71.2,29.97,SSW,202,5.0,5.0,80,0.00,,,0.00,Wunderground v.1.15,2013-06-23 22:45:00,
2013-06-23 18:55:00,78.0,72.1,29.97,SSE,163,4.0,7.0,82,0.00,,,0.00,Wunderground v.1.15,2013-06-23 22:55:00,
2013-06-23 19:05:00,77.9,72.0,29.97,SSE,157,4.0,6.0,82,0.00,,,0.00,Wunderground v.1.15,2013-06-23 23:05:00,
2013-06-23 19:15:00,77.8,71.9,29.97,South,189,4.0,5.0,82,0.00,,,0.00,Wunderground v.1.15,2013-06-23 23:15:00,
2013-06-23 19:25:00,77.4,71.8,29.97,SSE,162,5.0,5.0,83,0.00,,,0.00,Wunderground v.1.15,2013-06-23 23:25:00,
2013-06-23 19:35:00,76.9,71.7,29.97,South,189,4.0,4.0,84,0.00,,,0.00,Wunderground v.1.15,2013-06-23 23:35:00,
2013-06-23 19:45:00,76.3,71.5,29.96,South,179,3.0,3.0,85,0.00,,,0.00,Wunderground v.1.15,2013-06-23 23:45:00,
2013-06-23 19:55:00,75.8,71.3,29.97,SSW,207,3.0,4.0,86,0.00,,,0.00,Wunderground v.1.15,2013-06-23 23:55:00,
2013-06-23 20:00:00,75.6,71.1,29.97,South,175,3.0,6.0,86,0.00,,,0.00,Wunderground v.1.15,2013-06-24 00:00:00,
2013-06-23 20:10:00,75.5,71.0,29.97,SSW,194,4.0,4.0,86,0.00,,,0.00,Wunderground v.1.15,2013-06-24 00:10:00,
2013-06-23 20:20:00,75.4,70.9,29.97,South,188,3.0,3.0,86,0.00,,,0.00,Wunderground v.1.15,2013-06-24 00:20:00,
2013-06-23 20:25:00,75.2,70.7,29.97,SE,145,3.0,3.0,86,0.00,,,0.00,Wunderground v.1.15,2013-06-24 00:25:00,
2013-06-23 20:35:00,75.0,70.9,29.97,SSW,194,2.0,3.0,87,0.00,,,0.00,Wunderground v.1.15,2013-06-24 00:35:00,
2013-06-23 20:45:00,75.0,71.2,29.97,SSE,165,4.0,4.0,88,0.00,,,0.00,Wunderground v.1.15,2013-06-24 00:45:00,
2013-06-23 20:55:00,74.9,71.1,29.97,South,178,4.0,5.0,88,0.00,,,0.00,Wunderground v.1.15,2013-06-24 00:55:00,
2013-06-23 21:05:00,74.6,70.8,29.97,South,177,3.0,6.0,88,0.00,,,0.00,Wunderground v.1.15,2013-06-24 01:05:00,
2013-06-23 21:15:00,74.3,70.8,29.97,SSE,166,3.0,5.0,89,0.00,,,0.00,Wunderground v.1.15,2013-06-24 01:15:00,
2013-06-23 21:20:00,74.2,71.1,29.97,SE,146,3.0,3.0,90,0.00,,,0.00,Wunderground v.1.15,2013-06-24 01:20:00,
2013-06-23 21:30:00,73.9,70.8,29.97,SSW,192,3.0,3.0,90,0.00,,,0.00,Wunderground v.1.15,2013-06-24 01:30:00,
2013-06-23 21:40:00,73.4,70.6,29.97,South,182,1.0,2.0,91,0.00,,,0.00,Wunderground v.1.15,2013-06-24 01:40:00,
2013-06-23 21:45:00,73.3,70.5,29.97,South,182,1.0,2.0,91,0.00,,,0.00,Wunderground v.1.15,2013-06-24 01:45:00,
2013-06-23 21:55:00,73.0,70.5,29.98,South,180,2.0,2.0,92,0.00,,,0.00,Wunderground v.1.15,2013-06-24 01:55:00,
2013-06-23 22:05:00,73.0,70.2,29.98,South,187,2.0,4.0,91,0.00,,,0.00,Wunderground v.1.15,2013-06-24 02:05:00,
2013-06-23 22:15:00,73.3,69.9,29.98,SSW,200,2.0,2.0,89,0.00,,,0.00,Wunderground v.1.15,2013-06-24 02:15:00,
2013-06-23 22:25:00,73.0,69.2,29.98,SSW,207,1.0,2.0,88,0.00,,,0.00,Wunderground v.1.15,2013-06-24 02:25:00,
2013-06-23 22:35:00,72.7,68.9,29.98,SSW,200,2.0,2.0,88,0.00,,,0.00,Wunderground v.1.15,2013-06-24 02:35:00,
2013-06-23 22:40:00,72.6,68.8,29.98,SSW,197,1.0,2.0,88,0.00,,,0.00,Wunderground v.1.15,2013-06-24 02:40:00,
2013-06-23 22:50:00,72.4,68.3,29.98,SSW,198,2.0,2.0,87,0.00,,,0.00,Wunderground v.1.15,2013-06-24 02:50:00,
2013-06-23 23:00:00,72.0,68.2,29.98,South,179,2.0,2.0,88,0.00,,,0.00,Wunderground v.1.15,2013-06-24 03:00:00,
2013-06-23 23:05:00,72.0,68.2,29.98,South,182,2.0,2.0,88,0.00,,,0.00,Wunderground v.1.15,2013-06-24 03:05:00,
2013-06-23 23:15:00,71.9,68.5,29.98,South,175,1.0,2.0,89,0.00,,,0.00,Wunderground v.1.15,2013-06-24 03:15:00,
2013-06-23 23:25:00,71.6,68.2,29.98,South,184,2.0,2.0,89,0.00,,,0.00,Wunderground v.1.15,2013-06-24 03:25:00,
2013-06-23 23:35:00,71.6,67.9,29.98,SSW,203,2.0,2.0,88,0.00,,,0.00,Wunderground v.1.15,2013-06-24 03:35:00,
2013-06-23 23:45:00,71.6,67.9,29.98,SSW,195,2.0,2.0,88,0.00,,,0.00,Wunderground v.1.15,2013-06-24 03:45:00,
2013-06-23 23:55:00,71.5,67.4,29.99,SSE,148,2.0,2.0,87,0.00,,,0.00,Wunderground v.1.15,2013-06-24 03:55:00,